createdAt,value
2018-08-23T00:01:25.912Z,16.45
2018-08-23T00:03:55.066Z,13.58
2018-08-23T00:06:23.549Z,14.10
2018-08-23T00:08:52.427Z,15.28
2018-08-23T00:11:23.780Z,13.45
2018-08-23T00:13:52.339Z,15.30
2018-08-23T00:16:32.747Z,20.60
2018-08-23T00:19:01.901Z,14.98
2018-08-23T00:21:30.382Z,11.30
2018-08-23T00:24:15.826Z,16.20
2018-08-23T00:26:47.634Z,16.65
2018-08-23T00:29:33.335Z,14.30
2018-08-23T00:32:03.335Z,13.90
2018-08-23T00:34:33.115Z,13.78
2018-08-23T00:37:02.804Z,13.20
2018-08-23T00:39:31.342Z,15.00
2018-08-23T00:42:05.954Z,13.38
2018-08-23T00:44:51.131Z,11.88
2018-08-23T00:47:19.595Z,12.65
2018-08-23T00:49:48.063Z,15.20
2018-08-23T00:52:18.419Z,15.50
2018-08-23T00:54:46.863Z,12.85
2018-08-23T00:57:15.359Z,12.37
2018-08-23T00:59:47.894Z,14.05
2018-08-23T01:02:16.366Z,14.75
2018-08-23T01:04:46.023Z,14.35
2018-08-23T01:07:21.641Z,14.23
2018-08-23T01:09:50.107Z,12.98
2018-08-23T01:12:19.962Z,11.90
2018-08-23T01:14:49.906Z,13.15
2018-08-23T01:17:19.195Z,12.82
2018-08-23T01:19:57.263Z,12.68
2018-08-23T01:22:25.718Z,14.30
2018-08-23T01:24:54.182Z,14.28
2018-08-23T01:27:27.999Z,14.63
2018-08-23T01:29:56.471Z,12.03
2018-08-23T01:32:31.074Z,12.10
2018-08-23T01:34:59.510Z,12.45
2018-08-23T01:37:36.722Z,14.15
2018-08-23T01:40:07.251Z,12.88
2018-08-23T01:42:36.748Z,14.55
2018-08-23T01:45:06.639Z,13.75
2018-08-23T01:47:41.377Z,11.75
2018-08-23T01:50:10.583Z,13.40
2018-08-23T01:52:43.972Z,10.78
2018-08-23T01:55:13.472Z,14.13
2018-08-23T01:57:42.063Z,15.00
2018-08-23T02:00:11.280Z,11.70
2018-08-23T02:02:39.743Z,11.30
2018-08-23T02:05:08.394Z,11.57
2018-08-23T02:07:36.844Z,11.10
2018-08-23T02:10:05.662Z,12.50
2018-08-23T02:12:34.129Z,12.75
2018-08-23T02:15:04.229Z,14.65
2018-08-23T02:17:37.322Z,14.38
2018-08-23T02:20:05.854Z,12.80
2018-08-23T02:22:34.299Z,12.50
2018-08-23T02:25:02.815Z,13.32
2018-08-23T02:27:31.271Z,12.75
2018-08-23T02:29:59.737Z,18.65
2018-08-23T02:32:28.192Z,15.98
2018-08-23T02:35:04.085Z,15.53
2018-08-23T02:37:33.073Z,12.25
2018-08-23T02:40:01.536Z,13.93
2018-08-23T02:42:29.996Z,12.20
2018-08-23T02:45:02.671Z,16.40
2018-08-23T02:47:32.010Z,12.80
2018-08-23T02:50:00.482Z,14.63
2018-08-23T02:52:33.139Z,11.70
2018-08-23T02:55:01.606Z,11.53
2018-08-23T02:57:30.052Z,11.15
2018-08-23T02:59:58.539Z,12.78
2018-08-23T03:02:26.978Z,13.75
2018-08-23T03:04:55.461Z,12.65
2018-08-23T03:07:27.008Z,12.55
2018-08-23T03:09:55.503Z,12.60
2018-08-23T03:12:23.962Z,12.58
2018-08-23T03:14:52.443Z,12.37
2018-08-23T03:17:28.643Z,11.63
2018-08-23T03:20:00.903Z,11.00
2018-08-23T03:22:30.214Z,10.80
2018-08-23T03:25:01.477Z,14.93
2018-08-23T03:27:30.547Z,12.40
2018-08-23T03:29:59.367Z,12.70
2018-08-23T03:32:28.234Z,14.50
2018-08-23T03:34:57.139Z,12.45
2018-08-23T03:37:25.672Z,12.40
2018-08-23T03:39:54.198Z,15.43
2018-08-23T03:42:22.804Z,14.85
2018-08-23T03:44:52.347Z,14.40
2018-08-23T03:47:20.932Z,15.45
2018-08-23T03:49:49.596Z,13.20
2018-08-23T03:52:22.417Z,14.38
2018-08-23T03:54:58.260Z,12.15
2018-08-23T03:57:32.056Z,13.65
2018-08-23T04:00:00.553Z,16.37
2018-08-23T04:02:29.028Z,13.50
2018-08-23T04:05:09.139Z,13.13
2018-08-23T04:07:38.791Z,11.63
2018-08-23T04:10:07.824Z,13.90
2018-08-23T04:12:39.264Z,12.03
2018-08-23T04:15:24.076Z,12.33
2018-08-23T04:17:52.638Z,15.00
2018-08-23T04:20:21.141Z,12.05
2018-08-23T04:22:50.148Z,13.55
2018-08-23T04:25:18.546Z,13.08
2018-08-23T04:27:47.007Z,11.83
2018-08-23T04:30:15.491Z,11.50
2018-08-23T04:32:45.122Z,12.82
2018-08-23T04:35:22.546Z,12.18
2018-08-23T04:37:51.614Z,11.43
2018-08-23T04:40:20.102Z,17.35
2018-08-23T04:42:48.569Z,14.65
2018-08-23T04:45:22.181Z,12.73
2018-08-23T04:47:56.042Z,13.43
2018-08-23T04:50:25.148Z,15.88
2018-08-23T04:52:53.779Z,15.23
2018-08-23T04:55:22.302Z,12.10
2018-08-23T04:57:50.770Z,12.18
2018-08-23T05:00:19.203Z,11.68
2018-08-23T05:02:47.779Z,12.50
2018-08-23T05:05:16.237Z,13.05
2018-08-23T05:07:44.818Z,15.35
2018-08-23T05:10:13.464Z,17.23
2018-08-23T05:12:42.028Z,12.90
2018-08-23T05:15:22.547Z,10.63
2018-08-23T05:17:51.061Z,11.48
2018-08-23T05:20:19.587Z,13.90
2018-08-23T05:22:56.219Z,11.20
2018-08-23T05:25:25.371Z,12.68
2018-08-23T05:28:05.854Z,12.73
2018-08-23T05:30:34.415Z,10.13
2018-08-23T05:33:11.016Z,14.07
2018-08-23T05:35:39.571Z,11.75
2018-08-23T05:38:08.915Z,9.88
2018-08-23T05:40:43.163Z,12.73
2018-08-23T05:43:11.982Z,14.25
2018-08-23T05:45:45.900Z,15.13
2018-08-23T05:48:32.796Z,9.80
2018-08-23T05:51:13.357Z,10.85
2018-08-23T05:53:49.398Z,13.00
2018-08-23T05:56:18.960Z,9.18
2018-08-23T05:58:47.455Z,10.20
2018-08-23T06:01:15.946Z,14.43
2018-08-23T06:03:44.395Z,14.60
2018-08-23T06:06:12.857Z,11.45
2018-08-23T06:08:43.548Z,13.30
2018-08-23T06:11:12.356Z,14.15
2018-08-23T06:13:41.007Z,9.58
2018-08-23T06:16:09.446Z,14.23
2018-08-23T06:18:37.895Z,11.55
2018-08-23T06:21:06.403Z,11.73
2018-08-23T06:23:57.920Z,11.20
2018-08-23T06:26:35.282Z,11.00
2018-08-23T06:29:03.758Z,11.03
2018-08-23T06:31:32.199Z,14.07
2018-08-23T06:34:00.735Z,16.45
2018-08-23T06:36:31.926Z,11.73
2018-08-23T06:39:01.137Z,17.32
2018-08-23T06:41:29.980Z,13.62
2018-08-23T06:43:58.406Z,16.57
2018-08-23T06:46:26.877Z,20.23
2018-08-23T06:48:55.395Z,9.48
2018-08-23T06:51:23.801Z,28.42
2018-08-23T06:53:54.267Z,21.23
2018-08-23T06:56:22.743Z,17.87
2018-08-23T06:58:51.219Z,14.87
2018-08-23T07:01:35.361Z,17.77
2018-08-23T07:04:05.639Z,20.72
2018-08-23T07:06:34.866Z,19.75
2018-08-23T07:09:05.366Z,18.80
2018-08-23T07:11:33.852Z,19.62
2018-08-23T07:14:07.626Z,18.45
2018-08-23T07:16:36.104Z,16.10
2018-08-23T07:19:09.083Z,15.65
2018-08-23T07:21:37.563Z,19.20
2018-08-23T07:24:07.924Z,17.17
2018-08-23T07:26:36.457Z,14.70
2018-08-23T07:29:04.924Z,15.10
2018-08-23T07:31:33.557Z,15.63
2018-08-23T07:34:02.028Z,19.42
2018-08-23T07:36:31.676Z,12.53
2018-08-23T07:39:00.136Z,19.85
2018-08-23T07:41:28.644Z,17.65
2018-08-23T07:43:57.090Z,18.35
2018-08-23T07:46:25.872Z,20.97
2018-08-23T07:48:54.385Z,19.15
2018-08-23T07:51:25.221Z,14.68
2018-08-23T07:53:54.800Z,17.48
2018-08-23T07:56:27.787Z,18.05
2018-08-23T07:58:57.386Z,17.20
2018-08-23T08:01:30.160Z,16.77
2018-08-23T08:03:59.467Z,17.35
2018-08-23T08:06:28.688Z,12.98
2018-08-23T08:08:58.582Z,13.32
2018-08-23T08:11:28.160Z,13.93
2018-08-23T08:14:04.246Z,12.75
2018-08-23T08:16:33.573Z,14.10
2018-08-23T08:19:02.223Z,12.63
2018-08-23T08:21:30.827Z,13.58
2018-08-23T08:24:00.835Z,14.83
2018-08-23T08:26:31.744Z,13.65
2018-08-23T08:29:00.406Z,12.00
2018-08-23T08:31:28.904Z,13.38
2018-08-23T08:33:58.639Z,13.35
2018-08-23T08:36:33.218Z,14.53
2018-08-23T08:39:02.818Z,12.88
2018-08-23T08:41:34.441Z,10.65
2018-08-23T08:44:02.958Z,11.38
2018-08-23T08:46:31.490Z,11.15
2018-08-23T08:48:59.989Z,11.57
2018-08-23T08:51:30.383Z,9.00
2018-08-23T08:54:00.194Z,9.05
2018-08-23T08:56:38.358Z,12.28
2018-08-23T08:59:06.861Z,10.58
2018-08-23T09:01:35.459Z,12.13
2018-08-23T09:04:04.134Z,10.18
2018-08-23T09:06:36.951Z,10.98
2018-08-23T09:09:13.056Z,8.33
2018-08-23T09:11:42.159Z,8.80
2018-08-23T09:14:10.762Z,8.33
2018-08-23T09:16:39.302Z,8.38
2018-08-23T09:19:07.800Z,10.48
2018-08-23T09:21:36.302Z,8.68
2018-08-23T09:24:19.927Z,10.48
2018-08-23T09:26:48.407Z,11.65
2018-08-23T09:29:29.531Z,10.25
2018-08-23T09:32:08.037Z,9.95
2018-08-23T09:34:36.815Z,9.05
2018-08-23T09:37:05.703Z,9.50
2018-08-23T09:39:34.195Z,7.78
2018-08-23T09:42:02.700Z,8.18
2018-08-23T09:44:31.217Z,7.30
2018-08-23T09:47:03.956Z,8.43
2018-08-23T09:49:32.485Z,11.03
2018-08-23T09:52:00.991Z,6.95
2018-08-23T09:54:30.010Z,9.85
2018-08-23T09:56:58.452Z,7.22
2018-08-23T09:59:28.230Z,8.28
2018-08-23T10:02:05.201Z,7.62
2018-08-23T10:04:38.995Z,7.47
2018-08-23T10:07:12.780Z,7.33
2018-08-23T10:09:46.492Z,7.28
2018-08-23T10:12:20.363Z,7.85
2018-08-23T10:14:54.078Z,6.58
2018-08-23T10:17:27.915Z,6.67
2018-08-23T10:20:01.551Z,8.48
2018-08-23T10:22:38.100Z,7.30
2018-08-23T10:25:29.258Z,7.60
2018-08-23T10:27:57.752Z,7.05
2018-08-23T10:30:26.830Z,7.65
2018-08-23T10:32:55.295Z,7.12
2018-08-23T10:35:23.891Z,7.60
2018-08-23T10:37:52.772Z,7.65
2018-08-23T10:40:21.319Z,9.38
2018-08-23T10:42:49.779Z,8.85
2018-08-23T10:45:18.323Z,8.13
2018-08-23T10:48:19.024Z,6.92
2018-08-23T10:50:48.872Z,6.65
2018-08-23T10:53:17.855Z,7.45
2018-08-23T10:55:46.663Z,7.97
2018-08-23T10:58:15.176Z,7.97
2018-08-23T11:00:43.773Z,8.05
2018-08-23T11:03:12.312Z,6.72
2018-08-23T11:05:40.832Z,6.50
2018-08-23T11:08:14.780Z,6.50
2018-08-23T11:10:48.564Z,6.55
2018-08-23T11:13:22.335Z,6.20
2018-08-23T11:15:55.043Z,10.75
2018-08-23T11:18:29.106Z,6.95
2018-08-23T11:20:57.588Z,7.70
2018-08-23T11:23:27.063Z,7.67
2018-08-23T11:25:55.813Z,7.58
2018-08-23T11:28:25.474Z,7.60
2018-08-23T11:30:54.571Z,7.78
2018-08-23T11:33:23.062Z,9.45
2018-08-23T11:35:51.562Z,7.75
2018-08-23T11:38:20.052Z,8.10
2018-08-23T11:40:48.552Z,9.78
2018-08-23T11:43:17.031Z,7.47
2018-08-23T11:45:45.547Z,8.38
2018-08-23T11:48:14.031Z,9.50
2018-08-23T11:50:42.552Z,8.88
2018-08-23T11:53:11.014Z,8.60
2018-08-23T11:55:39.495Z,6.62
2018-08-23T11:58:08.058Z,8.33
2018-08-23T12:00:36.395Z,5.72
2018-08-23T12:03:05.018Z,8.50
2018-08-23T12:05:33.448Z,7.35
2018-08-23T12:08:01.900Z,6.65
2018-08-23T12:10:30.378Z,7.42
2018-08-23T12:12:58.826Z,8.18
2018-08-23T12:15:29.818Z,6.05
2018-08-23T12:17:58.667Z,6.50
2018-08-23T12:20:27.133Z,6.70
2018-08-23T12:22:55.592Z,6.30
2018-08-23T12:25:24.055Z,6.22
2018-08-23T12:27:58.399Z,6.72
2018-08-23T12:30:26.904Z,6.75
2018-08-23T12:32:55.473Z,7.35
2018-08-23T12:35:23.991Z,8.85
2018-08-23T12:38:02.435Z,5.78
2018-08-23T12:40:36.694Z,7.17
2018-08-23T12:43:10.428Z,5.65
2018-08-23T12:45:40.076Z,7.12
2018-08-23T12:48:09.515Z,6.15
2018-08-23T12:50:37.975Z,7.47
2018-08-23T12:53:06.572Z,8.30
2018-08-23T12:55:35.008Z,7.10
2018-08-23T12:58:03.698Z,6.65
2018-08-23T13:00:32.138Z,7.08
2018-08-23T13:03:00.637Z,8.23
2018-08-23T13:05:29.026Z,8.85
2018-08-23T13:07:57.458Z,7.17
2018-08-23T13:10:25.923Z,9.13
2018-08-23T13:12:54.351Z,7.92
2018-08-23T13:15:22.810Z,9.58
2018-08-23T13:17:51.248Z,7.90
2018-08-23T13:20:19.711Z,7.83
2018-08-23T13:22:48.161Z,8.03
2018-08-23T13:25:16.635Z,6.03
2018-08-23T13:27:45.148Z,7.90
2018-08-23T13:30:13.518Z,6.87
2018-08-23T13:32:41.960Z,7.80
2018-08-23T13:35:10.775Z,9.63
2018-08-23T13:37:39.235Z,6.78
2018-08-23T13:40:11.902Z,6.92
2018-08-23T13:42:40.390Z,11.43
2018-08-23T13:45:08.820Z,9.25
2018-08-23T13:47:37.251Z,8.38
2018-08-23T13:50:05.739Z,7.87
2018-08-23T13:52:34.296Z,11.12
2018-08-23T13:55:02.724Z,8.60
2018-08-23T13:57:31.156Z,7.12
2018-08-23T13:59:59.609Z,11.25
2018-08-23T14:02:28.065Z,8.88
2018-08-23T14:04:56.553Z,7.17
2018-08-23T14:07:25.072Z,8.98
2018-08-23T14:09:53.519Z,7.58
2018-08-23T14:12:22.008Z,6.95
2018-08-23T14:14:50.490Z,6.67
2018-08-23T14:17:18.955Z,7.12
2018-08-23T14:19:47.403Z,7.47
2018-08-23T14:22:15.976Z,9.83
2018-08-23T14:24:44.762Z,11.18
2018-08-23T14:27:13.285Z,6.53
2018-08-23T14:29:41.680Z,7.55
2018-08-23T14:32:10.143Z,7.50
2018-08-23T14:34:38.562Z,6.42
2018-08-23T14:37:07.303Z,6.92
2018-08-23T14:39:35.721Z,6.53
2018-08-23T14:42:04.228Z,7.97
2018-08-23T14:44:32.675Z,8.30
2018-08-23T14:47:06.495Z,7.28
2018-08-23T14:49:35.471Z,9.15
2018-08-23T14:52:04.875Z,9.20
2018-08-23T14:54:38.551Z,9.60
2018-08-23T14:57:12.383Z,6.58
2018-08-23T14:59:41.163Z,7.12
2018-08-23T15:02:09.663Z,8.23
2018-08-23T15:04:38.163Z,6.80
2018-08-23T15:07:07.194Z,8.55
2018-08-23T15:09:42.733Z,8.20
2018-08-23T15:12:11.301Z,8.80
2018-08-23T15:14:39.848Z,7.28
2018-08-23T15:17:09.087Z,7.33
2018-08-23T15:19:37.574Z,9.63
2018-08-23T15:22:06.777Z,8.00
2018-08-23T15:24:35.203Z,8.80
2018-08-23T15:27:03.807Z,11.85
2018-08-23T15:29:32.135Z,7.30
2018-08-23T15:32:00.686Z,6.95
2018-08-23T15:34:29.102Z,6.72
2018-08-23T15:36:57.562Z,9.03
2018-08-23T15:39:26.039Z,6.87
2018-08-23T15:41:55.055Z,6.17
2018-08-23T15:44:23.704Z,9.30
2018-08-23T15:46:52.241Z,6.92
2018-08-23T15:49:21.074Z,6.80
2018-08-23T15:51:49.622Z,10.28
2018-08-23T15:54:19.482Z,6.40
2018-08-23T15:56:48.087Z,10.00
2018-08-23T15:59:16.851Z,8.05
2018-08-23T16:01:45.330Z,6.72
2018-08-23T16:04:13.826Z,7.50
2018-08-23T16:06:42.322Z,10.20
2018-08-23T16:09:12.244Z,7.22
2018-08-23T16:11:40.859Z,8.40
2018-08-23T16:14:09.592Z,9.40
2018-08-23T16:16:43.398Z,6.75
2018-08-23T16:19:17.231Z,6.87
2018-08-23T16:21:49.946Z,9.55
2018-08-23T16:24:18.455Z,8.95
2018-08-23T16:26:52.242Z,7.30
2018-08-23T16:29:20.744Z,9.30
2018-08-23T16:31:49.217Z,5.75
2018-08-23T16:34:17.719Z,8.58
2018-08-23T16:36:46.208Z,9.25
2018-08-23T16:39:14.782Z,7.30
2018-08-23T16:41:43.299Z,9.83
2018-08-23T16:44:11.852Z,7.50
2018-08-23T16:46:40.352Z,5.95
2018-08-23T16:49:08.875Z,5.05
2018-08-23T16:51:37.363Z,5.55
2018-08-23T16:54:05.880Z,5.25
2018-08-23T16:56:34.344Z,6.58
2018-08-23T16:59:02.804Z,5.12
2018-08-23T17:01:31.254Z,6.33
2018-08-23T17:03:59.707Z,6.87
2018-08-23T17:06:28.896Z,5.28
2018-08-23T17:08:57.391Z,4.67
2018-08-23T17:11:25.870Z,7.45
2018-08-23T17:13:54.312Z,4.58
2018-08-23T17:16:28.166Z,5.25
2018-08-23T17:18:56.591Z,9.35
2018-08-23T17:21:25.060Z,7.92
2018-08-23T17:23:53.499Z,10.18
2018-08-23T17:26:22.001Z,6.30
2018-08-23T17:28:50.437Z,4.95
2018-08-23T17:31:18.909Z,5.85
2018-08-23T17:33:47.351Z,4.83
2018-08-23T17:36:15.826Z,6.58
2018-08-23T17:38:44.255Z,5.12
2018-08-23T17:41:12.718Z,7.10
2018-08-23T17:43:41.235Z,7.42
2018-08-23T17:46:09.763Z,6.17
2018-08-23T17:48:38.192Z,6.85
2018-08-23T17:51:06.651Z,6.62
2018-08-23T17:53:35.163Z,6.10
2018-08-23T17:56:03.706Z,6.70
2018-08-23T17:58:32.196Z,8.80
2018-08-23T18:01:00.752Z,8.30
2018-08-23T18:03:29.264Z,6.55
2018-08-23T18:05:57.762Z,8.28
2018-08-23T18:08:26.292Z,6.20
2018-08-23T18:10:54.776Z,7.25
2018-08-23T18:13:23.339Z,7.78
2018-08-23T18:15:57.247Z,6.40
2018-08-23T18:18:25.774Z,8.65
2018-08-23T18:20:54.273Z,8.28
2018-08-23T18:23:22.779Z,7.30
2018-08-23T18:25:51.259Z,10.23
2018-08-23T18:28:19.808Z,10.08
2018-08-23T18:30:48.294Z,9.58
2018-08-23T18:33:16.869Z,7.70
2018-08-23T18:35:45.364Z,8.40
2018-08-23T18:38:13.889Z,10.70
2018-08-23T18:40:42.380Z,7.60
2018-08-23T18:43:11.048Z,10.35
2018-08-23T18:45:39.538Z,8.38
2018-08-23T18:48:08.051Z,8.63
2018-08-23T18:50:36.640Z,8.65
2018-08-23T18:53:05.178Z,8.65
2018-08-23T18:55:33.624Z,7.92
2018-08-23T18:58:02.075Z,8.70
2018-08-23T19:00:30.575Z,8.68
2018-08-23T19:02:59.011Z,12.80
2018-08-23T19:05:27.488Z,10.00
2018-08-23T19:07:55.928Z,13.40
2018-08-23T19:10:24.402Z,10.28
2018-08-23T19:12:52.919Z,13.10
2018-08-23T19:15:26.687Z,10.65
2018-08-23T19:17:55.118Z,7.05
2018-08-23T19:20:23.600Z,10.03
2018-08-23T19:22:52.027Z,11.15
2018-08-23T19:25:20.480Z,9.85
2018-08-23T19:27:48.955Z,8.78
2018-08-23T19:30:17.411Z,12.50
2018-08-23T19:32:45.867Z,7.75
2018-08-23T19:35:14.360Z,12.28
2018-08-23T19:37:42.815Z,7.47
2018-08-23T19:40:11.287Z,11.10
2018-08-23T19:42:39.728Z,8.80
2018-08-23T19:45:08.193Z,9.53
2018-08-23T19:47:42.029Z,6.87
2018-08-23T19:50:11.336Z,9.50
2018-08-23T19:52:39.891Z,9.83
2018-08-23T19:55:09.431Z,6.37
2018-08-23T19:57:38.119Z,7.15
2018-08-23T20:00:08.057Z,6.17
2018-08-23T20:02:36.523Z,7.40
2018-08-23T20:05:05.159Z,7.35
2018-08-23T20:07:33.774Z,9.83
2018-08-23T20:10:02.299Z,9.63
2018-08-23T20:12:30.837Z,8.55
2018-08-23T20:14:59.346Z,6.80
2018-08-23T20:17:27.878Z,6.45
2018-08-23T20:19:56.367Z,6.37
2018-08-23T20:22:24.883Z,6.10
2018-08-23T20:24:53.415Z,6.22
2018-08-23T20:27:21.951Z,11.88
2018-08-23T20:29:50.439Z,6.97
2018-08-23T20:32:19.049Z,6.97
2018-08-23T20:34:47.462Z,6.62
2018-08-23T20:37:15.963Z,9.45
2018-08-23T20:39:44.521Z,10.45
2018-08-23T20:42:12.987Z,10.10
2018-08-23T20:44:41.487Z,8.00
2018-08-23T20:47:10.100Z,7.03
2018-08-23T20:49:38.524Z,8.98
2018-08-23T20:52:07.082Z,8.48
2018-08-23T20:54:35.574Z,8.30
2018-08-23T20:57:04.108Z,7.70
2018-08-23T20:59:32.603Z,12.18
2018-08-23T21:02:01.112Z,6.67
2018-08-23T21:04:29.636Z,7.95
2018-08-23T21:06:58.160Z,8.15
2018-08-23T21:09:26.676Z,6.85
2018-08-23T21:11:55.191Z,6.55
2018-08-23T21:14:23.711Z,8.13
2018-08-23T21:16:52.208Z,6.80
2018-08-23T21:19:20.720Z,6.62
2018-08-23T21:21:49.199Z,5.72
2018-08-23T21:24:17.703Z,8.63
2018-08-23T21:26:46.172Z,8.53
2018-08-23T21:29:14.687Z,9.68
2018-08-23T21:31:43.178Z,8.23
2018-08-23T21:34:11.703Z,5.65
2018-08-23T21:36:40.207Z,6.55
2018-08-23T21:39:09.666Z,7.03
2018-08-23T21:41:38.191Z,5.25
2018-08-23T21:44:06.705Z,5.95
2018-08-23T21:46:35.208Z,7.47
2018-08-23T21:49:03.736Z,5.85
2018-08-23T21:51:32.252Z,6.42
2018-08-23T21:54:00.747Z,7.33
2018-08-23T21:56:29.203Z,6.90
2018-08-23T21:58:57.733Z,5.90
2018-08-23T22:01:26.231Z,6.92
2018-08-23T22:03:54.678Z,7.10
2018-08-23T22:06:23.140Z,5.92
2018-08-23T22:08:51.609Z,5.97
2018-08-23T22:11:20.063Z,6.62
2018-08-23T22:13:48.506Z,6.65
2018-08-23T22:16:16.932Z,5.45
2018-08-23T22:18:45.415Z,5.92
2018-08-23T22:21:13.837Z,5.65
2018-08-23T22:23:42.295Z,5.20
2018-08-23T22:26:10.768Z,8.93
2018-08-23T22:28:39.205Z,6.17
2018-08-23T22:31:07.662Z,6.87
2018-08-23T22:33:36.090Z,7.42
2018-08-23T22:36:04.654Z,6.20
2018-08-23T22:38:33.095Z,7.67
2018-08-23T22:41:01.539Z,7.50
2018-08-23T22:43:29.977Z,5.87
2018-08-23T22:45:58.431Z,6.67
2018-08-23T22:48:26.871Z,6.75
2018-08-23T22:50:55.333Z,7.85
2018-08-23T22:53:23.858Z,6.67
2018-08-23T22:55:52.390Z,9.08
2018-08-23T22:58:20.880Z,6.62
2018-08-23T23:00:49.375Z,7.87
2018-08-23T23:03:23.240Z,6.03
2018-08-23T23:05:51.771Z,5.75
2018-08-23T23:08:20.250Z,6.70
2018-08-23T23:10:48.762Z,8.50
2018-08-23T23:13:17.248Z,5.58
2018-08-23T23:15:45.762Z,6.00
2018-08-23T23:18:14.251Z,6.25
2018-08-23T23:20:42.800Z,7.30
2018-08-23T23:23:11.305Z,5.95
2018-08-23T23:25:39.818Z,6.45
2018-08-23T23:28:08.298Z,6.90
2018-08-23T23:30:36.801Z,6.37
2018-08-23T23:33:05.326Z,6.75
2018-08-23T23:35:33.812Z,5.85
2018-08-23T23:38:02.327Z,9.68
2018-08-23T23:40:30.814Z,7.50
2018-08-23T23:42:59.335Z,7.03
2018-08-23T23:45:27.860Z,7.33
2018-08-23T23:47:56.353Z,8.55
2018-08-23T23:50:24.835Z,7.90
2018-08-23T23:52:53.332Z,6.33
2018-08-23T23:55:21.797Z,6.92
2018-08-23T23:57:50.285Z,6.70
